createdAt,value
2023-04-14T00:00:04.699Z,100.00
2023-04-14T00:02:40.506Z,100.00
2023-04-14T00:05:09.748Z,100.00
2023-04-14T00:07:37.498Z,100.00
2023-04-14T00:10:05.700Z,100.00
2023-04-14T00:12:33.474Z,100.00
2023-04-14T00:15:01.185Z,100.00
2023-04-14T00:17:32.011Z,100.00
2023-04-14T00:19:59.868Z,100.00
2023-04-14T00:22:28.585Z,100.00
2023-04-14T00:24:57.189Z,100.00
2023-04-14T00:27:24.927Z,100.00
2023-04-14T00:29:53.611Z,100.00
2023-04-14T00:32:21.813Z,100.00
2023-04-14T00:34:50.945Z,100.00
2023-04-14T00:37:18.826Z,100.00
2023-04-14T00:39:46.743Z,100.00
2023-04-14T00:42:14.421Z,100.00
2023-04-14T00:44:42.158Z,100.00
2023-04-14T00:47:10.843Z,100.00
2023-04-14T00:49:38.720Z,100.00
2023-04-14T00:52:08.926Z,100.00
2023-04-14T00:54:38.706Z,100.00
2023-04-14T00:57:07.432Z,100.00
2023-04-14T01:00:18.737Z,100.00
2023-04-14T01:02:48.685Z,100.00
2023-04-14T01:05:17.665Z,100.00
2023-04-14T01:07:49.405Z,100.00
2023-04-14T01:10:17.837Z,100.00
2023-04-14T01:13:14.633Z,100.00
2023-04-14T01:15:48.579Z,100.00
2023-04-14T01:18:22.960Z,100.00
2023-04-14T01:20:57.561Z,100.00
2023-04-14T01:23:28.407Z,100.00
2023-04-14T01:26:19.440Z,100.00
2023-04-14T01:29:31.465Z,100.00
2023-04-14T01:32:05.496Z,100.00
2023-04-14T01:34:40.440Z,100.00
2023-04-14T01:37:12.629Z,100.00
2023-04-14T01:39:43.615Z,100.00
2023-04-14T01:42:16.674Z,100.00
2023-04-14T01:44:46.316Z,100.00
2023-04-14T01:47:19.025Z,100.00
2023-04-14T01:49:51.531Z,100.00
2023-04-14T01:52:20.697Z,100.00
2023-04-14T01:54:52.032Z,100.00
2023-04-14T01:57:22.814Z,100.00
2023-04-14T01:59:53.058Z,100.00
2023-04-14T02:02:25.279Z,100.00
2023-04-14T02:04:55.692Z,100.00
2023-04-14T02:07:24.744Z,100.00
2023-04-14T02:09:54.965Z,100.00
2023-04-14T02:12:25.500Z,100.00
2023-04-14T02:14:55.636Z,100.00
2023-04-14T02:17:25.976Z,100.00
2023-04-14T02:19:55.602Z,100.00
2023-04-14T02:22:23.312Z,100.00
2023-04-14T02:24:51.379Z,100.00
2023-04-14T02:27:30.040Z,100.00
2023-04-14T02:30:06.499Z,100.00
2023-04-14T02:32:36.477Z,100.00
2023-04-14T02:35:12.191Z,100.00
2023-04-14T02:37:42.935Z,100.00
2023-04-14T02:40:16.642Z,100.00
2023-04-14T02:42:49.065Z,100.00
2023-04-14T02:45:23.293Z,100.00
2023-04-14T02:47:57.852Z,100.00
2023-04-14T02:50:28.106Z,100.00
2023-04-14T02:53:08.365Z,100.00
2023-04-14T02:55:38.796Z,100.00
2023-04-14T02:58:07.373Z,100.00
2023-04-14T03:00:41.075Z,100.00
2023-04-14T03:03:11.386Z,100.00
2023-04-14T03:05:40.705Z,100.00
2023-04-14T03:08:12.555Z,100.00
2023-04-14T03:10:46.028Z,100.00
2023-04-14T03:13:16.373Z,100.00
2023-04-14T03:15:46.448Z,100.00
2023-04-14T03:18:18.839Z,100.00
2023-04-14T03:20:48.805Z,100.00
2023-04-14T03:23:22.026Z,100.00
2023-04-14T03:25:59.489Z,100.00
2023-04-14T03:28:31.797Z,100.00
2023-04-14T03:31:03.799Z,100.00
2023-04-14T03:33:43.942Z,100.00
2023-04-14T03:36:16.087Z,100.00
2023-04-14T03:38:46.725Z,100.00
2023-04-14T03:41:15.655Z,100.00
2023-04-14T03:43:43.812Z,100.00
2023-04-14T03:46:15.375Z,100.00
2023-04-14T03:48:48.849Z,100.00
2023-04-14T03:51:18.380Z,100.00
2023-04-14T03:53:48.012Z,100.00
2023-04-14T03:56:18.752Z,100.00
2023-04-14T03:58:49.324Z,100.00
2023-04-14T04:01:19.319Z,100.00
2023-04-14T04:03:49.716Z,100.00
2023-04-14T04:06:18.384Z,100.00
2023-04-14T04:08:48.800Z,100.00
2023-04-14T04:11:18.835Z,100.00
2023-04-14T04:13:49.581Z,100.00
2023-04-14T04:16:18.536Z,100.00
2023-04-14T04:18:51.440Z,100.00
2023-04-14T04:21:28.143Z,100.00
2023-04-14T04:23:58.731Z,100.00
2023-04-14T04:26:27.838Z,100.00
2023-04-14T04:28:57.941Z,100.00
2023-04-14T04:31:29.325Z,100.00
2023-04-14T04:33:59.134Z,100.00
2023-04-14T04:36:29.117Z,100.00
2023-04-14T04:38:57.618Z,100.00
2023-04-14T04:41:29.348Z,100.00
2023-04-14T04:44:00.006Z,100.00
2023-04-14T04:46:45.601Z,100.00
2023-04-14T04:49:16.617Z,100.00
2023-04-14T04:51:45.205Z,100.00
2023-04-14T04:54:12.964Z,100.00
2023-04-14T04:56:41.077Z,100.00
2023-04-14T04:59:09.984Z,100.00
2023-04-14T05:01:37.825Z,100.00
2023-04-14T05:04:06.853Z,100.00
2023-04-14T05:06:38.057Z,100.00
2023-04-14T05:09:06.560Z,100.00
2023-04-14T05:11:34.935Z,100.00
2023-04-14T05:14:03.201Z,100.00
2023-04-14T05:16:32.036Z,100.00
2023-04-14T05:19:00.781Z,100.00
2023-04-14T05:21:29.177Z,100.00
2023-04-14T05:23:58.528Z,100.00
2023-04-14T05:26:48.674Z,100.00
2023-04-14T05:29:14.521Z,100.00
2023-04-14T05:31:42.403Z,100.00
2023-04-14T05:34:10.118Z,100.00
2023-04-14T05:36:37.785Z,100.00
2023-04-14T05:39:06.782Z,100.00
2023-04-14T05:41:34.689Z,100.00
2023-04-14T05:44:03.804Z,100.00
2023-04-14T05:46:31.929Z,100.00
2023-04-14T05:49:01.533Z,100.00
2023-04-14T05:51:30.323Z,100.00
2023-04-14T05:53:58.458Z,100.00
2023-04-14T05:56:28.399Z,100.00
2023-04-14T05:58:56.645Z,100.00
2023-04-14T06:01:24.300Z,100.00
2023-04-14T06:03:52.393Z,100.00
2023-04-14T06:06:20.679Z,100.00
2023-04-14T06:08:48.532Z,100.00
2023-04-14T06:11:16.258Z,100.00
2023-04-14T06:13:45.934Z,100.00
2023-04-14T06:16:13.908Z,100.00
2023-04-14T06:18:42.539Z,100.00
2023-04-14T06:21:10.496Z,100.00
2023-04-14T06:23:38.230Z,100.00
2023-04-14T06:26:06.876Z,100.00
2023-04-14T06:28:34.988Z,100.00
2023-04-14T06:31:04.790Z,100.00
2023-04-14T06:33:33.204Z,100.00
2023-04-14T06:36:03.363Z,100.00
2023-04-14T06:38:31.143Z,100.00
2023-04-14T06:40:59.156Z,100.00
2023-04-14T06:43:28.784Z,100.00
2023-04-14T06:45:56.815Z,100.00
2023-04-14T06:48:27.323Z,100.00
2023-04-14T06:50:55.990Z,100.00
2023-04-14T06:53:24.139Z,100.00
2023-04-14T06:55:58.890Z,100.00
2023-04-14T06:58:27.702Z,100.00
2023-04-14T07:00:57.403Z,100.00
2023-04-14T07:03:27.712Z,97.88
2023-04-14T07:05:55.965Z,95.49
2023-04-14T07:08:23.837Z,93.07
2023-04-14T07:10:59.957Z,93.70
2023-04-14T07:13:28.419Z,94.19
2023-04-14T07:15:56.378Z,92.20
2023-04-14T07:18:25.934Z,88.22
2023-04-14T07:20:54.125Z,87.08
2023-04-14T07:23:22.681Z,85.51
2023-04-14T07:25:52.524Z,78.40
2023-04-14T07:28:20.528Z,76.89
2023-04-14T07:30:48.501Z,72.53
2023-04-14T07:33:18.832Z,70.36
2023-04-14T07:36:00.660Z,74.17
2023-04-14T07:38:30.684Z,73.87
2023-04-14T07:40:58.447Z,74.73
2023-04-14T07:43:26.417Z,75.31
2023-04-14T07:45:54.324Z,72.77
2023-04-14T07:48:22.506Z,75.38
2023-04-14T07:50:51.821Z,75.72
2023-04-14T07:53:19.923Z,77.48
2023-04-14T07:55:47.838Z,77.96
2023-04-14T07:58:16.272Z,79.87
2023-04-14T08:00:44.391Z,78.82
2023-04-14T08:03:13.431Z,77.73
2023-04-14T08:05:42.184Z,79.41
2023-04-14T08:08:12.333Z,79.54
2023-04-14T08:10:40.003Z,76.47
2023-04-14T08:13:09.749Z,76.60
2023-04-14T08:15:37.679Z,76.81
2023-04-14T08:18:06.092Z,77.54
2023-04-14T08:20:33.971Z,74.78
2023-04-14T08:23:01.893Z,74.37
2023-04-14T08:25:31.346Z,79.63
2023-04-14T08:27:58.957Z,82.91
2023-04-14T08:30:27.188Z,83.06
2023-04-14T08:32:56.998Z,80.85
2023-04-14T08:35:39.582Z,81.33
2023-04-14T08:38:09.696Z,83.21
2023-04-14T08:40:40.765Z,82.65
2023-04-14T08:43:08.825Z,82.36
2023-04-14T08:45:37.698Z,81.18
2023-04-14T08:48:06.445Z,84.26
2023-04-14T08:50:38.163Z,80.57
2023-04-14T08:53:09.824Z,81.69
2023-04-14T08:55:41.660Z,81.43
2023-04-14T08:58:11.357Z,81.12
2023-04-14T09:00:40.532Z,80.50
2023-04-14T09:03:09.469Z,83.83
2023-04-14T09:05:38.232Z,78.11
2023-04-14T09:08:06.246Z,81.23
2023-04-14T09:10:35.704Z,76.30
2023-04-14T09:13:06.590Z,78.17
2023-04-14T09:15:34.416Z,76.50
2023-04-14T09:18:02.520Z,79.71
2023-04-14T09:20:37.370Z,74.55
2023-04-14T09:23:09.383Z,77.11
2023-04-14T09:25:39.469Z,77.88
2023-04-14T09:28:08.821Z,76.80
2023-04-14T09:30:36.685Z,77.25
2023-04-14T09:33:08.882Z,77.63
2023-04-14T09:35:48.584Z,78.84
2023-04-14T09:38:17.760Z,75.99
2023-04-14T09:40:45.878Z,78.13
2023-04-14T09:43:30.479Z,80.76
2023-04-14T09:45:59.028Z,75.64
2023-04-14T09:48:26.812Z,78.62
2023-04-14T09:51:00.203Z,78.12
2023-04-14T09:53:30.110Z,75.59
2023-04-14T09:55:59.646Z,73.38
2023-04-14T09:58:32.803Z,71.86
2023-04-14T10:01:00.748Z,73.01
2023-04-14T10:03:37.427Z,78.39
2023-04-14T10:06:09.892Z,77.18
2023-04-14T10:08:39.748Z,72.43
2023-04-14T10:11:18.778Z,71.90
2023-04-14T10:13:49.259Z,69.90
2023-04-14T10:16:17.524Z,73.20
2023-04-14T10:18:45.690Z,69.82
2023-04-14T10:21:14.348Z,69.94
2023-04-14T10:23:42.716Z,70.14
2023-04-14T10:26:12.201Z,69.15
2023-04-14T10:28:41.831Z,71.29
2023-04-14T10:31:15.968Z,67.12
2023-04-14T10:33:44.133Z,67.67
2023-04-14T10:36:12.097Z,67.31
2023-04-14T10:38:42.242Z,67.00
2023-04-14T10:41:10.597Z,67.47
2023-04-14T10:43:38.681Z,68.98
2023-04-14T10:46:07.950Z,65.09
2023-04-14T10:48:39.560Z,69.05
2023-04-14T10:51:10.542Z,69.77
2023-04-14T10:53:40.842Z,72.07
2023-04-14T10:56:08.772Z,68.12
2023-04-14T10:58:37.627Z,64.07
2023-04-14T11:01:30.905Z,69.15
2023-04-14T11:04:17.679Z,67.87
2023-04-14T11:06:57.063Z,64.08
2023-04-14T11:09:34.263Z,64.67
2023-04-14T11:12:07.523Z,63.15
2023-04-14T11:14:36.989Z,61.09
2023-04-14T11:17:06.155Z,61.69
2023-04-14T11:19:35.790Z,65.03
2023-04-14T11:22:03.736Z,64.32
2023-04-14T11:24:32.316Z,64.23
2023-04-14T11:27:00.207Z,70.19
2023-04-14T11:29:28.341Z,68.89
2023-04-14T11:32:06.963Z,65.31
2023-04-14T11:34:35.989Z,70.48
2023-04-14T11:37:04.970Z,69.48
2023-04-14T11:39:33.027Z,70.34
2023-04-14T11:42:01.167Z,74.71
2023-04-14T11:44:30.325Z,68.57
2023-04-14T11:46:58.301Z,63.73
2023-04-14T11:49:37.838Z,63.36
2023-04-14T11:52:07.160Z,68.89
2023-04-14T11:54:39.215Z,66.85
2023-04-14T11:57:11.568Z,64.19
2023-04-14T11:59:43.891Z,60.39
2023-04-14T12:02:22.027Z,57.97
2023-04-14T12:04:53.070Z,53.63
2023-04-14T12:07:23.485Z,55.32
2023-04-14T12:09:51.644Z,53.63
2023-04-14T12:12:20.041Z,55.12
2023-04-14T12:14:50.236Z,52.25
2023-04-14T12:17:20.258Z,51.46
2023-04-14T12:19:49.044Z,50.61
2023-04-14T12:22:26.381Z,51.83
2023-04-14T12:24:54.519Z,51.35
2023-04-14T12:27:24.566Z,50.15
2023-04-14T12:29:52.884Z,54.71
2023-04-14T12:32:22.035Z,51.96
2023-04-14T12:34:58.464Z,50.67
2023-04-14T12:37:29.687Z,49.76
2023-04-14T12:40:00.313Z,44.95
2023-04-14T12:42:29.621Z,49.68
2023-04-14T12:44:58.814Z,51.04
2023-04-14T12:47:32.015Z,45.73
2023-04-14T12:50:02.332Z,46.28
2023-04-14T12:52:42.020Z,40.92
2023-04-14T12:55:21.166Z,41.60
2023-04-14T12:57:52.152Z,37.91
2023-04-14T13:00:20.990Z,38.37
2023-04-14T13:02:49.964Z,37.28
2023-04-14T13:05:18.299Z,38.29
2023-04-14T13:07:47.890Z,38.75
2023-04-14T13:10:15.956Z,36.87
2023-04-14T13:12:44.275Z,37.28
2023-04-14T13:15:28.019Z,38.67
2023-04-14T13:18:01.431Z,37.38
2023-04-14T13:20:30.963Z,41.05
2023-04-14T13:23:00.622Z,38.60
2023-04-14T13:25:28.377Z,41.96
2023-04-14T13:27:56.352Z,39.46
2023-04-14T13:30:23.961Z,39.43
2023-04-14T13:32:53.012Z,40.11
2023-04-14T13:35:20.720Z,40.75
2023-04-14T13:37:48.421Z,41.92
2023-04-14T13:40:18.210Z,41.80
2023-04-14T13:42:45.897Z,41.94
2023-04-14T13:45:13.779Z,42.72
2023-04-14T13:47:41.756Z,43.87
2023-04-14T13:50:10.225Z,43.94
2023-04-14T13:52:38.538Z,43.34
2023-04-14T13:55:07.076Z,44.74
2023-04-14T13:57:36.337Z,44.70
2023-04-14T14:00:09.292Z,40.48
2023-04-14T14:02:39.430Z,40.46
2023-04-14T14:05:09.168Z,41.18
2023-04-14T14:07:37.818Z,42.37
2023-04-14T14:10:09.209Z,41.61
2023-04-14T14:12:38.564Z,42.24
2023-04-14T14:15:07.929Z,43.73
2023-04-14T14:17:36.759Z,43.53
2023-04-14T14:20:05.060Z,45.24
2023-04-14T14:22:32.838Z,45.25
2023-04-14T14:25:15.142Z,42.77
2023-04-14T14:27:48.355Z,44.94
2023-04-14T14:30:16.205Z,42.93
2023-04-14T14:32:44.053Z,43.27
2023-04-14T14:35:12.319Z,43.92
2023-04-14T14:37:42.086Z,43.73
2023-04-14T14:40:11.397Z,43.63
2023-04-14T14:42:39.269Z,42.95
2023-04-14T14:45:10.340Z,42.89
2023-04-14T14:47:39.039Z,45.67
2023-04-14T14:50:09.275Z,43.20
2023-04-14T14:52:37.459Z,42.57
2023-04-14T14:55:06.745Z,44.49
2023-04-14T14:57:36.020Z,41.55
2023-04-14T15:00:07.861Z,42.93
2023-04-14T15:02:38.544Z,42.89
2023-04-14T15:05:08.142Z,45.85
2023-04-14T15:07:36.268Z,46.19
2023-04-14T15:10:05.546Z,46.51
2023-04-14T15:12:33.465Z,42.96
2023-04-14T15:15:01.716Z,44.71
2023-04-14T15:17:29.604Z,43.26
2023-04-14T15:20:03.532Z,44.64
2023-04-14T15:22:32.144Z,44.33
2023-04-14T15:25:00.839Z,43.36
2023-04-14T15:27:28.805Z,45.85
2023-04-14T15:29:57.544Z,45.69
2023-04-14T15:32:26.761Z,45.98
2023-04-14T15:34:55.910Z,43.48
2023-04-14T15:37:26.140Z,43.69
2023-04-14T15:39:54.126Z,45.08
2023-04-14T15:42:22.013Z,46.86
2023-04-14T15:44:50.897Z,48.04
2023-04-14T15:47:19.379Z,46.42
2023-04-14T15:49:52.380Z,49.90
2023-04-14T15:52:36.388Z,49.04
2023-04-14T15:55:04.660Z,48.91
2023-04-14T15:57:32.441Z,49.52
2023-04-14T16:00:02.151Z,48.87
2023-04-14T16:02:42.101Z,52.16
2023-04-14T16:05:10.871Z,50.73
2023-04-14T16:07:40.199Z,49.90
2023-04-14T16:10:08.866Z,50.43
2023-04-14T16:12:37.726Z,49.88
2023-04-14T16:15:08.086Z,52.30
2023-04-14T16:17:36.337Z,52.68
2023-04-14T16:20:05.661Z,54.47
2023-04-14T16:22:34.113Z,49.14
2023-04-14T16:25:04.426Z,53.39
2023-04-14T16:27:32.455Z,51.30
2023-04-14T16:30:00.434Z,52.76
2023-04-14T16:32:28.301Z,54.69
2023-04-14T16:34:56.745Z,56.73
2023-04-14T16:37:26.237Z,58.19
2023-04-14T16:39:54.917Z,56.81
2023-04-14T16:42:25.067Z,53.23
2023-04-14T16:44:53.091Z,56.02
2023-04-14T16:47:21.820Z,51.85
2023-04-14T16:49:50.289Z,51.82
2023-04-14T16:52:18.353Z,54.79
2023-04-14T16:54:46.660Z,59.30
2023-04-14T16:57:15.406Z,62.75
2023-04-14T16:59:46.145Z,61.48
2023-04-14T17:02:14.016Z,56.89
2023-04-14T17:04:42.346Z,59.77
2023-04-14T17:07:10.336Z,58.71
2023-04-14T17:09:38.015Z,62.16
2023-04-14T17:12:06.100Z,60.83
2023-04-14T17:14:35.584Z,64.20
2023-04-14T17:17:04.751Z,62.77
2023-04-14T17:19:32.945Z,64.17
2023-04-14T17:22:00.668Z,65.55
2023-04-14T17:24:28.308Z,64.27
2023-04-14T17:26:57.118Z,66.13
2023-04-14T17:29:25.628Z,64.88
2023-04-14T17:31:54.452Z,64.58
2023-04-14T17:34:24.110Z,65.55
2023-04-14T17:36:51.976Z,67.46
2023-04-14T17:39:21.450Z,69.18
2023-04-14T17:41:49.410Z,68.67
2023-04-14T17:44:17.366Z,68.63
2023-04-14T17:46:46.373Z,68.40
2023-04-14T17:49:14.107Z,69.18
2023-04-14T17:51:43.700Z,68.14
2023-04-14T17:54:11.687Z,67.87
2023-04-14T17:56:39.833Z,68.60
2023-04-14T17:59:07.669Z,69.36
2023-04-14T18:01:35.676Z,69.26
2023-04-14T18:04:04.491Z,70.24
2023-04-14T18:06:33.608Z,69.71
2023-04-14T18:09:03.810Z,69.32
2023-04-14T18:11:32.511Z,69.91
2023-04-14T18:14:01.342Z,70.06
2023-04-14T18:16:30.207Z,69.62
2023-04-14T18:18:59.288Z,69.48
2023-04-14T18:21:29.312Z,70.07
2023-04-14T18:26:32.000Z,70.68
2023-04-14T18:29:00.945Z,70.79
2023-04-14T18:31:31.557Z,70.65
2023-04-14T18:34:04.386Z,70.86
2023-04-14T18:36:33.569Z,69.84
2023-04-14T18:39:04.568Z,71.08
2023-04-14T18:41:34.177Z,72.11
2023-04-14T18:44:04.573Z,73.57
2023-04-14T18:46:33.236Z,73.83
2023-04-14T18:49:01.884Z,74.50
2023-04-14T18:51:31.476Z,75.73
2023-04-14T18:56:28.243Z,75.88
2023-04-14T18:58:57.688Z,75.35
2023-04-14T19:01:26.016Z,75.06
2023-04-14T19:03:56.746Z,74.61
2023-04-14T19:06:26.384Z,74.27
2023-04-14T19:08:54.502Z,74.43
2023-04-14T19:11:22.469Z,74.76
2023-04-14T19:13:51.794Z,75.20
2023-04-14T19:16:22.621Z,74.86
2023-04-14T19:18:50.548Z,75.95
2023-04-14T19:21:19.422Z,75.77
2023-04-14T19:23:47.745Z,76.39
2023-04-14T19:26:16.267Z,77.18
2023-04-14T19:28:45.892Z,77.24
2023-04-14T19:31:14.090Z,76.42
2023-04-14T19:33:44.019Z,76.34
2023-04-14T19:36:13.155Z,77.24
2023-04-14T19:38:41.487Z,77.69
2023-04-14T19:41:09.749Z,78.06
2023-04-14T19:43:38.452Z,76.57
2023-04-14T19:46:08.134Z,76.59
2023-04-14T19:48:36.568Z,77.48
2023-04-14T19:51:06.142Z,77.91
2023-04-14T19:53:35.102Z,77.28
2023-04-14T19:56:05.527Z,77.75
2023-04-14T19:58:34.211Z,77.74
2023-04-14T20:01:02.375Z,78.52
2023-04-14T20:03:33.094Z,77.92
2023-04-14T20:06:03.235Z,76.99
2023-04-14T20:08:32.442Z,76.92
2023-04-14T20:11:00.772Z,77.97
2023-04-14T20:13:31.151Z,77.02
2023-04-14T20:15:59.164Z,78.19
2023-04-14T20:18:28.885Z,77.73
2023-04-14T20:20:57.036Z,78.32
2023-04-14T20:23:24.791Z,77.73
2023-04-14T20:25:56.080Z,77.20
2023-04-14T20:28:26.214Z,75.76
2023-04-14T20:30:55.932Z,76.36
2023-04-14T20:33:25.115Z,75.85
2023-04-14T20:35:53.945Z,76.67
2023-04-14T20:38:22.477Z,76.09
2023-04-14T20:40:51.122Z,75.19
2023-04-14T20:43:20.822Z,74.12
2023-04-14T20:45:52.422Z,76.03
2023-04-14T20:48:20.579Z,76.01
2023-04-14T20:50:50.053Z,76.47
2023-04-14T20:53:20.059Z,78.10
2023-04-14T20:55:48.143Z,78.37
2023-04-14T20:58:16.109Z,79.13
2023-04-14T21:00:45.655Z,79.15
2023-04-14T21:03:13.596Z,80.02
2023-04-14T21:05:42.121Z,79.83
2023-04-14T21:08:10.491Z,78.56
2023-04-14T21:11:02.196Z,78.18
2023-04-14T21:15:29.993Z,77.86
2023-04-14T21:16:18.033Z,78.56
2023-04-14T21:18:46.102Z,79.23
2023-04-14T21:21:14.070Z,78.46
2023-04-14T21:23:42.531Z,78.95
2023-04-14T21:26:10.653Z,79.15
2023-04-14T21:28:38.576Z,78.11
2023-04-14T21:31:07.777Z,77.34
2023-04-14T21:33:39.283Z,77.93
2023-04-14T21:36:07.414Z,77.52
2023-04-14T21:38:35.166Z,79.19
2023-04-14T21:41:02.827Z,81.66
2023-04-14T21:43:31.631Z,80.93
2023-04-14T21:45:59.499Z,80.16
2023-04-14T21:48:27.686Z,82.18
2023-04-14T21:50:57.002Z,81.36
2023-04-14T21:53:24.784Z,80.73
2023-04-14T21:56:09.105Z,81.58
2023-04-14T21:58:38.370Z,82.12
2023-04-14T22:01:07.017Z,83.00
2023-04-14T22:03:37.183Z,83.48
2023-04-14T22:06:07.253Z,83.00
2023-04-14T22:08:35.040Z,83.14
2023-04-14T22:11:02.785Z,84.94
2023-04-14T22:13:30.460Z,84.95
2023-04-14T22:15:58.158Z,85.49
2023-04-14T22:18:27.644Z,85.91
2023-04-14T22:20:55.996Z,86.82
2023-04-14T22:23:25.987Z,86.87
2023-04-14T22:25:53.792Z,86.79
2023-04-14T22:28:21.554Z,86.72
2023-04-14T22:30:49.675Z,87.45
2023-04-14T22:33:17.427Z,86.98
2023-04-14T22:35:45.617Z,86.98
2023-04-14T22:38:13.736Z,87.24
2023-04-14T22:40:42.877Z,86.78
2023-04-14T22:43:10.938Z,87.43
2023-04-14T22:45:39.863Z,87.83
2023-04-14T22:48:08.787Z,86.47
2023-04-14T22:50:37.234Z,85.64
2023-04-14T22:53:05.729Z,85.32
2023-04-14T22:55:33.441Z,84.86
2023-04-14T22:58:02.774Z,85.71
2023-04-14T23:00:30.536Z,85.63
2023-04-14T23:02:59.258Z,86.23
2023-04-14T23:05:27.352Z,85.53
2023-04-14T23:07:55.227Z,85.24
2023-04-14T23:10:22.923Z,86.60
2023-04-14T23:12:52.096Z,85.58
2023-04-14T23:15:28.654Z,85.03
2023-04-14T23:17:56.842Z,85.04
2023-04-14T23:20:24.762Z,83.98
2023-04-14T23:22:52.573Z,85.40
2023-04-14T23:25:20.180Z,86.07
2023-04-14T23:27:47.882Z,86.86
2023-04-14T23:30:15.669Z,87.22
2023-04-14T23:32:45.337Z,87.31
2023-04-14T23:35:13.338Z,86.45
2023-04-14T23:37:41.458Z,86.55
2023-04-14T23:40:10.679Z,86.40
2023-04-14T23:42:39.827Z,85.18
2023-04-14T23:45:09.642Z,84.57
2023-04-14T23:47:37.801Z,84.55
2023-04-14T23:50:08.874Z,84.24
2023-04-14T23:52:37.001Z,87.99
2023-04-14T23:55:05.606Z,89.22
2023-04-14T23:57:34.185Z,93.95
